Time;durP1;ratioP1;P1;durP2;ratioP2;P2;SDS_P1;SDS_P2;PMS_P1;PMS_P2;Temp;Humidity;BMP_temperature;BMP_pressure;BME280_temperature;BME280_humidity;BME280_pressure;Samples;Min_cycle;Max_cycle;Signal;HPM_P1;HPM_P2
2022/06/26 00:00:09;;;;;;;7.53;4.17;;;;;;;23.21;66.22;96956.63;5069214;28;20189;-73
2022/06/26 00:02:36;;;;;;;7.80;4.60;;;;;;;23.11;66.22;96956.69;5069862;28;20828;-73
2022/06/26 00:05:06;;;;;;;9.77;5.00;;;;;;;23.08;67.78;96961.44;5070015;28;20182;-74
2022/06/26 00:07:34;;;;;;;4.70;4.20;;;;;;;22.83;68.38;96954.22;5068277;28;20188;-73
2022/06/26 00:10:02;;;;;;;5.63;4.67;;;;;;;22.79;70.00;96966.91;5070151;28;20227;-73
2022/06/26 00:12:29;;;;;;;6.13;4.33;;;;;;;22.61;68.56;96987.94;5068524;28;20679;-74
2022/06/26 00:14:56;;;;;;;4.70;4.30;;;;;;;22.14;70.80;96998.63;5070171;28;20261;-72
2022/06/26 00:17:23;;;;;;;7.40;5.53;;;;;;;21.77;74.03;96988.81;5034080;28;20194;-73
2022/06/26 00:19:50;;;;;;;7.20;5.30;;;;;;;21.57;75.69;96991.59;5069177;28;20286;-72
2022/06/26 00:22:17;;;;;;;7.50;5.57;;;;;;;21.51;77.33;96986.88;5069634;28;20194;-73
2022/06/26 00:24:45;;;;;;;7.10;5.27;;;;;;;21.59;77.95;96984.38;5050514;28;20189;-73
2022/06/26 00:27:12;;;;;;;8.87;6.47;;;;;;;21.42;79.59;96966.59;5069722;28;20186;-74
2022/06/26 00:29:39;;;;;;;7.60;5.70;;;;;;;21.68;79.59;96971.16;5068083;28;20202;-73
2022/06/26 00:32:07;;;;;;;9.57;5.87;;;;;;;21.81;79.25;96974.41;5052111;28;21295;-73
2022/06/26 00:34:34;;;;;;;6.97;5.87;;;;;;;21.99;78.96;96979.75;5068324;28;20206;-74
2022/06/26 00:37:01;;;;;;;7.73;6.30;;;;;;;21.92;78.02;96991.03;5051034;28;20227;-73
2022/06/26 00:39:28;;;;;;;13.60;7.00;;;;;;;21.68;79.40;96988.78;5068940;28;20695;-73
2022/06/26 00:41:55;;;;;;;7.53;6.20;;;;;;;21.56;79.91;96992.53;5067987;28;20183;-73
2022/06/26 00:44:24;;;;;;;13.27;6.33;;;;;;;21.86;80.33;96981.88;5069280;28;20669;-72
2022/06/26 00:46:52;;;;;;;7.00;6.03;;;;;;;21.92;80.05;96975.22;5049678;28;20661;-73
2022/06/26 00:49:19;;;;;;;9.20;6.03;;;;;;;21.96;80.75;96987.13;5051310;28;20215;-73
2022/06/26 00:51:54;;;;;;;6.83;5.37;;;;;;;22.17;80.20;96986.00;5067603;28;20256;-73
2022/06/26 00:54:24;;;;;;;8.20;6.07;;;;;;;22.18;79.60;96982.38;5050631;28;20187;-73
2022/06/26 00:56:51;;;;;;;10.07;7.10;;;;;;;22.04;79.87;96969.63;5068886;28;20217;-73
2022/06/26 00:59:18;;;;;;;7.93;6.50;;;;;;;22.15;79.58;96981.84;5049404;28;20232;-72
2022/06/26 01:01:45;;;;;;;9.87;7.07;;;;;;;22.04;79.63;96972.28;5050911;28;20553;-72
2022/06/26 01:04:12;;;;;;;7.03;6.20;;;;;;;21.92;80.04;96970.78;5067373;28;20207;-72
2022/06/26 01:06:39;;;;;;;6.57;5.43;;;;;;;22.13;79.47;96979.34;5069139;28;20197;-73
2022/06/26 01:09:06;;;;;;;8.87;6.47;;;;;;;22.13;79.35;96974.06;5067819;28;20199;-73
2022/06/26 01:11:33;;;;;;;8.20;6.10;;;;;;;22.20;79.64;96971.66;5068438;28;20197;-73
2022/06/26 01:14:01;;;;;;;11.77;6.87;;;;;;;22.16;80.02;96965.84;5050931;28;20186;-73
2022/06/26 01:16:29;;;;;;;8.50;6.63;;;;;;;22.21;80.03;96971.53;5049413;28;20220;-74
2022/06/26 01:18:56;;;;;;;9.83;6.87;;;;;;;22.20;79.65;96963.75;5050605;28;20223;-73
2022/06/26 01:21:24;;;;;;;11.33;7.50;;;;;;;22.19;79.77;96970.84;5048486;28;20196;-73
2022/06/26 01:23:53;;;;;;;7.30;6.37;;;;;;;22.20;79.80;96976.94;5067245;28;20186;-73
2022/06/26 01:26:22;;;;;;;8.67;6.63;;;;;;;22.16;79.37;96976.41;5049389;28;20184;-73
2022/06/26 01:28:49;;;;;;;8.17;6.70;;;;;;;22.24;79.37;96965.13;5066849;28;20195;-72
2022/06/26 01:31:18;;;;;;;7.13;5.87;;;;;;;22.14;79.54;96965.16;5050411;28;20609;-73
2022/06/26 01:33:47;;;;;;;7.63;6.27;;;;;;;22.11;80.00;96969.91;5067081;28;20681;-73
2022/06/26 01:36:15;;;;;;;8.37;6.03;;;;;;;22.02;79.25;96968.94;5050314;28;20285;-73
2022/06/26 01:38:43;;;;;;;7.27;5.50;;;;;;;21.95;79.57;96975.75;5065162;28;20734;-73
2022/06/26 01:41:10;;;;;;;7.40;5.93;;;;;;;21.92;79.94;96975.22;5050195;28;20732;-74
2022/06/26 01:43:38;;;;;;;7.07;5.67;;;;;;;21.84;79.14;96982.00;5049712;28;20187;-74
2022/06/26 01:46:06;;;;;;;7.37;5.77;;;;;;;21.87;78.21;96973.00;5050550;28;20741;-73
2022/06/26 01:48:37;;;;;;;6.20;5.17;;;;;;;21.86;78.60;96985.34;5069007;28;20860;-73
2022/06/26 01:51:06;;;;;;;6.40;5.17;;;;;;;21.98;79.05;96985.19;5066683;28;20217;-74
2022/06/26 01:53:36;;;;;;;6.83;5.67;;;;;;;22.08;78.33;96978.94;5052093;28;20212;-73
2022/06/26 01:56:04;;;;;;;10.43;5.63;;;;;;;22.19;77.97;96976.13;5058850;28;20219;-72
2022/06/26 01:58:38;;;;;;;6.57;5.57;;;;;;;22.05;78.23;96973.91;5062611;28;20233;-74
2022/06/26 02:01:07;;;;;;;7.70;5.73;;;;;;;22.01;78.62;96977.00;5059651;28;20195;-75
2022/06/26 02:03:35;;;;;;;8.83;6.27;;;;;;;21.87;78.78;96970.34;5070568;28;20192;-74
2022/06/26 02:06:03;;;;;;;8.70;6.50;;;;;;;21.55;80.02;96985.63;5050910;28;20755;-74
2022/06/26 02:08:31;;;;;;;7.60;6.60;;;;;;;21.56;80.60;96985.47;5049096;28;20316;-74
2022/06/26 02:13:45;;;;;;;6.50;5.90;;;;;;;21.80;80.19;96977.16;5049274;28;20748;-74
2022/06/26 02:16:16;;;;;;;7.00;6.13;;;;;;;21.78;80.94;96982.53;5050425;28;20252;-74
2022/06/26 02:18:49;;;;;;;10.17;6.50;;;;;;;21.75;79.44;96985.47;5049919;28;20316;-75
2022/06/26 02:21:19;;;;;;;11.00;7.03;;;;;;;21.27;81.51;96989.06;5048501;28;20687;-74
2022/06/26 02:23:47;;;;;;;9.13;7.77;;;;;;;21.02;82.98;96991.22;5067736;28;20562;-74
2022/06/26 02:26:17;;;;;;;9.00;7.27;;;;;;;20.79;85.03;96992.38;5048154;28;20181;-73
2022/06/26 02:28:45;;;;;;;9.37;8.07;;;;;;;21.03;84.58;96981.53;5050038;28;20276;-74
2022/06/26 02:31:13;;;;;;;11.33;8.23;;;;;;;21.03;84.03;96987.66;5065404;28;20191;-74
2022/06/26 02:33:40;;;;;;;10.63;8.70;;;;;;;21.00;84.51;96995.75;5049197;28;20198;-73
2022/06/26 02:36:08;;;;;;;10.43;9.23;;;;;;;20.82;85.51;97000.03;5049361;28;20233;-74
2022/06/26 02:38:38;;;;;;;13.17;9.03;;;;;;;20.77;85.31;96993.50;5048304;28;20205;-75
2022/06/26 02:41:06;;;;;;;12.63;8.60;;;;;;;20.74;85.44;96996.38;5032794;28;20584;-74
2022/06/26 02:43:34;;;;;;;9.63;8.63;;;;;;;20.82;85.21;96993.91;5047886;28;20196;-74
2022/06/26 02:46:04;;;;;;;10.87;9.30;;;;;;;20.92;84.78;96990.34;5066102;28;20193;-74
2022/06/26 02:48:31;;;;;;;10.00;9.00;;;;;;;20.96;84.79;96983.84;5065306;28;20668;-74
2022/06/26 02:50:59;;;;;;;13.67;9.20;;;;;;;21.08;84.31;96988.06;5048860;28;20665;-74
2022/06/26 02:53:26;;;;;;;11.67;8.67;;;;;;;21.14;83.19;96991.13;5049487;28;20284;-75
2022/06/26 02:55:54;;;;;;;9.03;8.13;;;;;;;20.98;84.53;96992.44;5048152;28;20646;-74
2022/06/26 02:58:24;;;;;;;10.57;8.63;;;;;;;21.08;84.21;96982.78;5049581;28;20221;-74
2022/06/26 03:01:02;;;;;;;11.67;8.67;;;;;;;21.20;84.52;96988.78;5047723;28;20709;-74
2022/06/26 03:03:29;;;;;;;14.00;8.43;;;;;;;21.38;83.61;96989.78;5049462;28;20190;-73
2022/06/26 03:05:56;;;;;;;8.90;7.97;;;;;;;21.28;83.56;96985.47;5066556;28;20189;-74
2022/06/26 03:08:25;;;;;;;10.23;9.03;;;;;;;21.19;82.60;96983.63;5066404;28;20562;-74
2022/06/26 03:10:52;;;;;;;8.73;7.47;;;;;;;21.18;83.01;96981.97;5049240;28;20571;-74
2022/06/26 03:13:20;;;;;;;9.23;7.77;;;;;;;21.21;83.16;96979.91;5047678;28;20670;-73
2022/06/26 03:15:47;;;;;;;9.13;8.13;;;;;;;21.35;82.66;96971.59;5067221;28;20190;-73
2022/06/26 03:18:17;;;;;;;8.90;8.00;;;;;;;21.43;82.62;96984.91;5047691;28;20292;-74
2022/06/26 03:20:44;;;;;;;9.13;8.23;;;;;;;21.31;83.50;96985.19;5067247;28;20205;-75
2022/06/26 03:23:11;;;;;;;10.10;8.70;;;;;;;21.15;82.87;96984.88;5048454;28;20194;-74
2022/06/26 03:25:39;;;;;;;9.97;8.50;;;;;;;20.50;84.31;96909.06;5065077;28;20265;-75
2022/06/26 03:28:06;;;;;;;10.70;9.70;;;;;;;20.93;85.12;96992.03;5065940;28;20182;-73
2022/06/26 03:30:42;;;;;;;14.13;9.60;;;;;;;21.01;84.65;96999.25;5047489;28;20197;-73
2022/06/26 03:33:09;;;;;;;12.10;9.83;;;;;;;20.87;84.92;96992.56;5067223;28;20187;-73
2022/06/26 03:35:36;;;;;;;11.37;10.17;;;;;;;20.84;85.04;96999.88;5065868;28;20224;-75
2022/06/26 03:38:04;;;;;;;11.30;10.13;;;;;;;20.77;85.17;96998.75;5067147;28;20190;-75
2022/06/26 03:40:33;;;;;;;11.10;10.00;;;;;;;20.71;85.63;96997.47;5048881;28;20731;-74
2022/06/26 03:43:01;;;;;;;12.50;10.10;;;;;;;20.77;85.31;97010.09;5048917;28;20193;-75
2022/06/26 03:45:41;;;;;;;11.07;9.97;;;;;;;20.85;85.78;97005.03;5052799;28;20677;-75
2022/06/26 03:48:08;;;;;;;12.47;9.73;;;;;;;20.92;86.45;96992.97;5050902;28;20570;-74
2022/06/26 03:50:35;;;;;;;11.03;9.90;;;;;;;21.23;85.99;96996.41;5052651;28;20193;-74
2022/06/26 03:53:02;;;;;;;12.17;9.60;;;;;;;21.34;84.88;97003.34;5051043;28;20679;-74
2022/06/26 03:55:29;;;;;;;9.37;8.40;;;;;;;21.52;84.38;96999.06;5052296;28;20266;-74
2022/06/26 03:57:57;;;;;;;9.33;8.37;;;;;;;21.82;82.66;97001.59;5051932;28;20193;-74
2022/06/26 04:00:25;;;;;;;10.80;9.13;;;;;;;21.44;82.61;97009.47;5050884;28;20222;-74
2022/06/26 04:02:53;;;;;;;9.50;8.53;;;;;;;21.57;83.93;97007.41;5052544;28;20978;-74
2022/06/26 04:05:25;;;;;;;9.97;8.47;;;;;;;21.77;82.71;97011.69;5050859;28;20192;-75
2022/06/26 04:07:56;;;;;;;9.30;8.00;;;;;;;21.70;82.12;97002.69;5052421;28;20186;-74
2022/06/26 04:10:32;;;;;;;9.43;7.83;;;;;;;21.51;83.06;97002.69;5051237;28;20193;-74
2022/06/26 04:13:04;;;;;;;11.67;8.63;;;;;;;21.51;83.16;96998.25;5051670;28;20210;-74
2022/06/26 04:15:37;;;;;;;9.63;8.40;;;;;;;21.48;83.62;97008.22;5051829;28;20276;-74
2022/06/26 04:18:04;;;;;;;10.83;8.63;;;;;;;21.38;83.58;97008.22;5050475;28;20200;-74
2022/06/26 04:20:32;;;;;;;9.27;8.37;;;;;;;21.39;84.74;97004.59;5051751;28;20653;-74
2022/06/26 04:23:05;;;;;;;8.73;7.83;;;;;;;21.41;83.74;97009.75;5033964;28;20187;-74
2022/06/26 04:25:35;;;;;;;9.20;7.87;;;;;;;21.55;83.12;97014.59;5051723;28;20191;-75
2022/06/26 04:28:03;;;;;;;9.73;8.73;;;;;;;21.27;83.60;97016.22;5051243;28;20193;-74
2022/06/26 04:30:36;;;;;;;10.80;7.97;;;;;;;21.19;83.70;96987.09;5033856;28;20202;-74
2022/06/26 04:33:04;;;;;;;9.93;8.73;;;;;;;21.37;83.10;97019.72;5068789;28;20739;-74
2022/06/26 04:35:33;;;;;;;9.73;8.60;;;;;;;21.21;83.44;97021.19;5046975;28;20237;-73
2022/06/26 04:38:01;;;;;;;10.93;9.77;;;;;;;21.22;83.52;97017.63;5048550;28;20665;-73
2022/06/26 04:40:29;;;;;;;10.57;9.47;;;;;;;21.24;84.07;97010.41;5047833;28;20232;-73
2022/06/26 04:42:57;;;;;;;10.70;8.37;;;;;;;21.48;83.27;97009.06;5032849;28;20651;-74
2022/06/26 04:45:24;;;;;;;9.93;8.30;;;;;;;21.58;82.85;97009.03;5064440;28;20556;-74
2022/06/26 04:47:55;;;;;;;8.63;7.30;;;;;;;21.75;81.77;97011.84;5046613;28;20674;-74
2022/06/26 04:50:23;;;;;;;8.53;7.63;;;;;;;21.81;81.54;97010.44;5048856;28;20195;-73
2022/06/26 04:52:52;;;;;;;8.50;7.63;;;;;;;21.79;81.19;97023.75;5046133;28;20186;-72
2022/06/26 04:55:21;;;;;;;8.57;7.60;;;;;;;21.72;81.54;97027.09;5064594;28;20187;-74
2022/06/26 04:57:50;;;;;;;8.97;7.40;;;;;;;21.48;82.12;97034.56;5046378;28;20269;-75
2022/06/26 05:00:17;;;;;;;8.97;7.63;;;;;;;21.43;82.76;97021.78;5048411;28;20313;-74
2022/06/26 05:03:16;;;;;;;8.90;7.67;;;;;;;21.40;82.15;97015.97;5026959;28;20677;-73
2022/06/26 05:06:10;;;;;;;8.73;7.53;;;;;;;21.51;81.55;97026.41;5045219;28;20195;-71
2022/06/26 05:08:43;;;;;;;9.77;8.77;;;;;;;21.35;82.27;97024.28;5046682;28;20194;-73
2022/06/26 05:11:11;;;;;;;9.00;7.67;;;;;;;21.54;82.97;97031.38;5047063;28;20186;-73
2022/06/26 05:13:39;;;;;;;8.73;7.80;;;;;;;21.76;81.06;97028.50;5046816;28;20765;-74
2022/06/26 05:16:27;;;;;;;7.57;6.83;;;;;;;21.60;80.73;97029.03;5048315;28;20282;-74
2022/06/26 05:19:00;;;;;;;8.17;7.27;;;;;;;21.69;81.25;97011.56;5045058;28;20313;-76
2022/06/26 05:21:32;;;;;;;8.00;6.60;;;;;;;21.84;80.32;97023.38;5027816;28;20199;-71
2022/06/26 05:23:59;;;;;;;7.23;6.50;;;;;;;21.82;80.38;97023.50;5044864;28;20196;-71
2022/06/26 05:26:27;;;;;;;7.47;6.77;;;;;;;22.05;79.28;97029.31;5044010;28;20741;-72
2022/06/26 05:28:54;;;;;;;7.13;6.40;;;;;;;22.25;78.00;97030.13;5047535;28;20275;-72
2022/06/26 05:31:21;;;;;;;6.90;6.17;;;;;;;22.43;76.69;97036.31;5045213;28;20194;-72
2022/06/26 05:33:49;;;;;;;8.73;7.83;;;;;;;22.45;77.45;97040.50;5047151;28;20253;-75
2022/06/26 05:36:22;;;;;;;7.57;6.57;;;;;;;22.51;76.29;97036.44;5038691;28;20334;-76
2022/06/26 05:38:50;;;;;;;8.67;6.70;;;;;;;22.61;76.44;97027.56;5052267;28;20243;-73
2022/06/26 05:41:20;;;;;;;6.90;6.03;;;;;;;22.63;75.80;97030.88;5064630;28;20211;-75
2022/06/26 05:43:50;;;;;;;8.30;6.63;;;;;;;22.44;76.27;97043.28;5064595;28;20560;-75
2022/06/26 05:46:18;;;;;;;7.10;6.40;;;;;;;22.18;77.44;97050.97;5028523;28;20293;-75
2022/06/26 05:48:48;;;;;;;8.30;7.13;;;;;;;22.02;78.28;97050.72;5046883;28;20250;-75
2022/06/26 05:51:28;;;;;;;7.23;6.57;;;;;;;22.35;78.51;97052.88;5046766;28;20198;-75
2022/06/26 05:54:06;;;;;;;7.07;6.37;;;;;;;22.78;76.70;97051.53;5044638;28;20276;-75
2022/06/26 05:57:05;;;;;;;7.90;6.70;;;;;;;23.22;74.49;97056.06;5023801;28;20219;-74
2022/06/26 05:59:47;;;;;;;7.53;6.77;;;;;;;23.83;72.90;97054.44;5044875;28;20218;-75
2022/06/26 06:02:44;;;;;;;6.77;6.03;;;;;;;24.58;69.55;97069.78;5044366;28;20200;-74
2022/06/26 06:05:13;;;;;;;7.53;6.23;;;;;;;25.10;68.66;97075.88;5029020;28;20743;-74
2022/06/26 06:07:42;;;;;;;6.80;6.10;;;;;;;25.47;65.34;97081.69;5045495;28;20296;-75
2022/06/26 06:10:11;;;;;;;6.63;5.90;;;;;;;25.37;65.38;97062.41;5045432;28;20211;-74
2022/06/26 06:12:41;;;;;;;6.20;5.60;;;;;;;25.17;65.59;97078.72;5046684;28;20189;-74
2022/06/26 06:15:08;;;;;;;5.77;5.23;;;;;;;24.93;66.95;97076.81;5044917;28;20487;-73
2022/06/26 06:17:44;;;;;;;5.90;5.30;;;;;;;24.53;67.46;97076.50;5014490;28;20585;-75
2022/06/26 06:20:12;;;;;;;6.87;6.17;;;;;;;24.55;66.93;97075.38;5046736;28;20252;-73
2022/06/26 06:22:45;;;;;;;7.53;5.33;;;;;;;24.24;68.25;97069.69;5029401;28;20211;-75
2022/06/26 06:25:13;;;;;;;6.20;5.60;;;;;;;24.34;68.67;97074.09;5045611;28;20198;-74
2022/06/26 06:27:43;;;;;;;6.07;5.47;;;;;;;24.43;67.75;97076.63;5044773;28;20226;-73
2022/06/26 06:30:18;;;;;;;6.00;5.40;;;;;;;24.51;68.06;97073.19;5045800;28;20192;-72
2022/06/26 06:33:03;;;;;;;7.60;5.93;;;;;;;24.55;68.50;97067.44;5043551;28;20211;-72
2022/06/26 06:35:45;;;;;;;6.97;6.30;;;;;;;24.57;68.08;97076.06;5044718;28;20231;-74
2022/06/26 06:38:29;;;;;;;9.03;6.87;;;;;;;24.83;67.81;97074.25;5045495;28;20691;-74
2022/06/26 06:41:11;;;;;;;8.77;6.97;;;;;;;24.84;67.47;97059.19;5043115;28;20249;-74
2022/06/26 06:44:00;;;;;;;19.77;10.90;;;;;;;24.99;67.29;97060.28;5039120;28;20196;-74
2022/06/26 06:47:59;;;;;;;5.70;5.10;;;;;;;24.85;66.72;97068.81;5040538;28;20204;-74
2022/06/26 06:51:20;;;;;;;8.13;5.70;;;;;;;25.07;65.26;97065.59;5045056;28;20243;-74
2022/06/26 06:54:41;;;;;;;7.57;5.63;;;;;;;25.26;65.96;97061.88;5028640;28;20195;-73
2022/06/26 06:58:05;;;;;;;7.47;5.03;;;;;;;25.24;63.44;97059.41;5045216;28;20684;-75
2022/06/26 07:01:26;;;;;;;7.27;4.97;;;;;;;25.37;63.55;97046.50;5027977;28;20224;-74
2022/06/26 07:04:47;;;;;;;5.37;4.70;;;;;;;25.42;63.60;97057.50;5044631;28;20699;-76
2022/06/26 07:08:08;;;;;;;5.63;4.77;;;;;;;25.09;64.48;97060.97;5012657;28;20582;-73
2022/06/26 07:11:29;;;;;;;5.33;4.83;;;;;;;25.32;64.10;97062.06;5043893;28;20200;-74
2022/06/26 07:14:51;;;;;;;6.37;5.10;;;;;;;25.62;63.72;97064.16;5028213;28;20209;-73
2022/06/26 07:18:12;;;;;;;8.93;5.23;;;;;;;25.33;63.96;97062.88;5044760;28;20191;-73
2022/06/26 07:21:34;;;;;;;4.97;4.47;;;;;;;25.48;63.05;97062.16;5048698;28;20310;-73
2022/06/26 07:24:55;;;;;;;6.00;4.33;;;;;;;25.67;62.63;97061.03;5046850;28;20200;-73
2022/06/26 07:28:22;;;;;;;7.87;4.53;;;;;;;25.67;62.87;97071.66;5036235;28;20220;-73
2022/06/26 07:31:43;;;;;;;6.87;5.30;;;;;;;25.54;62.77;97077.41;5050529;28;20196;-72
2022/06/26 07:35:04;;;;;;;8.03;4.60;;;;;;;25.88;62.25;97073.84;5033593;28;20198;-74
2022/06/26 07:38:25;;;;;;;4.50;4.10;;;;;;;26.53;60.11;97059.59;5049648;28;20200;-73
2022/06/26 07:41:47;;;;;;;5.40;3.70;;;;;;;27.11;58.74;97064.63;5033141;28;20221;-73
2022/06/26 07:45:10;;;;;;;6.00;4.10;;;;;;;27.52;56.28;97063.47;5049525;28;20248;-74
2022/06/26 07:48:38;;;;;;;6.73;4.40;;;;;;;27.44;55.95;97068.00;5065725;28;20189;-73
2022/06/26 07:51:59;;;;;;;3.60;3.30;;;;;;;26.89;57.59;97070.69;5063555;28;20205;-75
2022/06/26 07:55:20;;;;;;;5.80;3.70;;;;;;;26.70;57.44;97077.19;5046820;28;20213;-73
2022/06/26 07:58:45;;;;;;;4.70;3.83;;;;;;;26.52;56.96;97084.50;5049927;28;20182;-72
2022/06/26 08:02:05;;;;;;;3.93;3.63;;;;;;;26.49;58.04;97068.91;5049640;28;20236;-75
2022/06/26 08:05:26;;;;;;;4.63;3.67;;;;;;;26.41;59.02;97087.50;5049971;28;20190;-74
2022/06/26 08:08:47;;;;;;;6.33;4.20;;;;;;;26.07;58.39;97085.00;5041838;28;20312;-73
2022/06/26 08:12:10;;;;;;;4.43;4.07;;;;;;;25.89;60.40;97086.09;5024251;28;20198;-74
2022/06/26 08:15:31;;;;;;;4.37;3.90;;;;;;;25.86;61.15;97087.28;5022923;28;20194;-74
2022/06/26 08:18:51;;;;;;;4.90;3.60;;;;;;;25.72;60.88;97085.25;5022495;28;20203;-73
2022/06/26 08:24:18;;;;;;;7.67;3.73;;;;;;;25.74;61.42;97093.88;5009246;28;20191;-74
2022/06/26 08:26:45;;;;;;;4.00;3.67;;;;;;;25.81;61.66;97081.63;5025452;28;20199;-72
2022/06/26 08:29:12;;;;;;;7.03;4.07;;;;;;;25.96;61.28;97092.44;5007293;28;20199;-75
2022/06/26 08:31:39;;;;;;;3.73;3.43;;;;;;;26.00;61.82;97093.75;5009984;28;20643;-74
2022/06/26 08:34:07;;;;;;;5.73;4.03;;;;;;;25.73;62.05;97095.72;5011798;28;20217;-73
2022/06/26 08:36:34;;;;;;;5.20;3.70;;;;;;;25.71;61.70;97100.34;5075177;28;20236;-72
2022/06/26 08:39:03;;;;;;;6.70;3.97;;;;;;;25.47;61.76;97088.84;5089476;28;20220;-72
2022/06/26 08:41:34;;;;;;;5.00;3.70;;;;;;;25.68;61.17;97092.69;5071475;28;20188;-72
2022/06/26 08:44:01;;;;;;;3.90;3.50;;;;;;;25.73;61.22;97090.41;5071716;28;20196;-75
2022/06/26 08:46:28;;;;;;;4.20;3.80;;;;;;;25.78;61.48;97096.03;5050701;28;20207;-75
2022/06/26 08:49:00;;;;;;;4.97;3.60;;;;;;;25.84;60.20;97095.38;5051149;28;20189;-74
2022/06/26 08:51:28;;;;;;;6.93;4.60;;;;;;;26.04;60.24;97105.72;5067764;28;20193;-75
2022/06/26 08:53:56;;;;;;;8.10;5.63;;;;;;;26.05;60.06;97105.53;5069687;28;20275;-74
2022/06/26 08:56:23;;;;;;;4.90;4.30;;;;;;;26.06;59.63;97090.44;5059265;28;20261;-74
2022/06/26 08:58:51;;;;;;;4.40;2.77;;;;;;;26.19;58.22;97098.78;5070593;28;20204;-73
2022/06/26 09:01:18;;;;;;;4.70;2.97;;;;;;;26.22;58.14;97103.75;5088936;28;20219;-75
2022/06/26 09:03:45;;;;;;;5.80;3.60;;;;;;;26.30;58.48;97101.09;5087685;28;20667;-75
2022/06/26 09:06:12;;;;;;;6.37;3.60;;;;;;;26.41;58.49;97098.13;5089176;28;20663;-74
2022/06/26 09:08:44;;;;;;;3.97;3.27;;;;;;;26.60;57.51;97097.78;5087315;28;20192;-73
2022/06/26 09:11:11;;;;;;;3.77;3.47;;;;;;;26.51;57.22;97091.66;5070913;28;20690;-73
2022/06/26 09:13:40;;;;;;;5.03;3.30;;;;;;;26.66;56.30;97102.44;5070009;28;20220;-74
2022/06/26 09:16:08;;;;;;;5.83;3.60;;;;;;;26.61;56.40;97104.75;5069662;28;20200;-74
2022/06/26 09:18:38;;;;;;;8.53;3.70;;;;;;;26.61;56.06;97102.09;5071567;28;20185;-74
2022/06/26 09:21:09;;;;;;;6.83;3.70;;;;;;;26.57;55.53;97098.94;5069479;28;20228;-73
2022/06/26 09:23:38;;;;;;;5.47;3.57;;;;;;;26.58;55.94;97100.59;5088838;28;20569;-74
2022/06/26 09:26:06;;;;;;;4.00;3.60;;;;;;;26.67;55.92;97096.09;5084818;28;20193;-74
2022/06/26 09:28:34;;;;;;;3.97;3.57;;;;;;;26.92;55.76;97096.91;5084578;28;20196;-74
2022/06/26 09:31:03;;;;;;;6.40;4.00;;;;;;;26.83;55.78;97098.75;5077100;28;20208;-74
2022/06/26 09:33:35;;;;;;;6.10;3.57;;;;;;;26.68;56.32;97076.50;5067119;28;20573;-74
2022/06/26 09:36:05;;;;;;;6.63;4.27;;;;;;;26.65;55.67;97068.88;5068108;28;20222;-74
2022/06/26 09:38:34;;;;;;;6.00;3.90;;;;;;;26.83;56.20;97100.59;5056760;28;20754;-74
2022/06/26 09:41:04;;;;;;;6.93;3.90;;;;;;;26.78;56.58;97100.28;5067215;28;20225;-75
2022/06/26 09:43:34;;;;;;;5.13;4.63;;;;;;;26.66;56.78;97099.78;5069660;28;20239;-74
2022/06/26 09:46:05;;;;;;;5.37;4.03;;;;;;;26.66;56.79;97105.09;5067797;28;20185;-74
2022/06/26 09:48:33;;;;;;;7.43;4.93;;;;;;;26.62;56.54;97103.75;5029691;28;20450;-74
2022/06/26 09:51:01;;;;;;;6.00;3.60;;;;;;;26.53;57.06;97104.75;5070185;28;20734;-74
2022/06/26 09:53:30;;;;;;;7.03;4.20;;;;;;;26.44;56.69;97109.25;5050283;28;20701;-75
2022/06/26 09:55:59;;;;;;;6.80;4.10;;;;;;;26.43;56.37;97102.28;5056612;28;20192;-74
2022/06/26 09:58:28;;;;;;;4.67;4.17;;;;;;;26.37;57.41;97107.44;5068314;28;20197;-73
2022/06/26 10:06:32;;;;;;;4.47;4.07;;;;;;;26.24;57.76;97107.06;5071271;28;20517;-75
2022/06/26 10:09:03;;;;;;;5.37;3.87;;;;;;;26.27;57.71;97115.56;5086704;28;20276;-74
2022/06/26 10:11:32;;;;;;;7.70;4.57;;;;;;;26.36;57.28;97111.06;5088375;28;20188;-75
2022/06/26 10:14:04;;;;;;;5.90;3.83;;;;;;;26.43;56.99;97110.25;5051924;28;20729;-74
2022/06/26 10:17:16;;;;;;;4.37;3.67;;;;;;;26.26;57.92;97107.75;5047392;28;20186;-74
2022/06/26 10:19:57;;;;;;;5.20;4.40;;;;;;;26.23;56.74;97111.59;5037997;28;20216;-75
2022/06/26 10:22:24;;;;;;;6.57;3.93;;;;;;;26.37;57.04;97105.59;5083031;28;20211;-76
2022/06/26 10:25:00;;;;;;;7.83;4.80;;;;;;;26.39;56.33;97105.44;5077031;28;20490;-76
2022/06/26 10:27:31;;;;;;;4.77;4.10;;;;;;;26.36;56.23;97111.06;5049898;28;20185;-76
2022/06/26 10:30:15;;;;;;;4.97;3.97;;;;;;;26.40;56.33;97107.91;5066350;28;20196;-76
2022/06/26 10:32:43;;;;;;;5.47;4.03;;;;;;;26.38;56.15;97093.97;5051281;28;20616;-75
2022/06/26 10:35:13;;;;;;;6.00;3.90;;;;;;;26.46;54.91;97106.44;5049624;28;20308;-74
2022/06/26 10:37:45;;;;;;;7.37;3.73;;;;;;;26.71;55.77;97109.91;5068351;28;20197;-78
2022/06/26 10:42:52;;;;;;;6.37;4.03;;;;;;;26.79;56.00;97107.25;5067026;28;20235;-75
2022/06/26 10:43:01;;;;;;;7.13;3.57;;;;;;;26.56;54.90;97094.63;5078632;28;20188;-75
2022/06/26 10:45:33;;;;;;;6.30;3.77;;;;;;;26.50;55.01;97103.25;5077421;28;20212;-75
2022/06/26 10:48:22;;;;;;;5.63;3.80;;;;;;;26.49;54.76;97100.78;5073658;28;20227;-76
2022/06/26 10:51:01;;;;;;;4.17;3.67;;;;;;;26.40;55.46;97048.63;5078954;28;20678;-75
2022/06/26 10:53:38;;;;;;;5.27;3.77;;;;;;;26.70;55.48;97095.78;5052760;28;20201;-75
2022/06/26 10:56:08;;;;;;;5.77;3.67;;;;;;;26.77;55.68;97088.81;5049732;28;20209;-75
2022/06/26 10:58:42;;;;;;;6.20;4.00;;;;;;;26.78;55.70;97090.47;5087404;28;20741;-75
2022/06/26 11:01:11;;;;;;;4.63;3.60;;;;;;;26.93;53.94;97099.44;5089775;28;20231;-75
2022/06/26 11:03:41;;;;;;;5.43;3.33;;;;;;;26.78;52.22;97089.63;5073451;28;20184;-74
2022/06/26 11:06:15;;;;;;;5.23;3.67;;;;;;;26.71;53.20;97078.81;5091059;28;20192;-75
2022/06/26 11:08:47;;;;;;;6.17;3.67;;;;;;;26.74;52.63;97080.34;5090153;28;20210;-74
2022/06/26 11:11:22;;;;;;;6.30;3.90;;;;;;;26.72;52.95;97088.50;5091024;28;20202;-74
2022/06/26 11:13:56;;;;;;;5.83;3.60;;;;;;;26.71;52.44;97093.97;5072422;28;20675;-75
2022/06/26 11:16:38;;;;;;;6.83;3.87;;;;;;;26.65;52.65;97091.97;5091206;28;20253;-74
2022/06/26 11:19:07;;;;;;;5.00;3.80;;;;;;;26.53;52.65;97091.47;5079921;28;20241;-73
2022/06/26 11:21:34;;;;;;;6.70;4.17;;;;;;;26.47;53.00;97092.97;5069462;28;20209;-73
2022/06/26 11:24:02;;;;;;;6.27;3.90;;;;;;;26.43;53.03;97085.50;5052978;28;20223;-74
2022/06/26 11:26:29;;;;;;;5.80;3.73;;;;;;;26.45;52.74;97088.81;5034836;28;20830;-73
2022/06/26 11:29:01;;;;;;;5.40;3.73;;;;;;;26.53;52.40;97091.47;5070851;28;20193;-74
2022/06/26 11:31:30;;;;;;;6.97;3.70;;;;;;;26.45;52.80;97089.66;5062124;28;20588;-73
2022/06/26 11:34:11;;;;;;;5.10;3.47;;;;;;;26.31;52.52;97092.16;5069009;28;20269;-73
2022/06/26 11:36:50;;;;;;;4.77;3.80;;;;;;;26.19;52.75;97099.63;5070347;28;20221;-74
2022/06/26 11:39:24;;;;;;;4.10;3.53;;;;;;;25.92;53.20;97091.09;5068854;28;20218;-74
2022/06/26 11:41:51;;;;;;;4.30;3.20;;;;;;;25.95;53.36;97090.75;5070075;28;20621;-74
2022/06/26 11:44:18;;;;;;;5.87;4.07;;;;;;;26.10;52.53;97091.81;5068622;28;20193;-74
2022/06/26 11:46:46;;;;;;;6.70;3.90;;;;;;;26.18;52.33;97091.81;5036280;28;20609;-74
2022/06/26 11:49:13;;;;;;;5.63;4.07;;;;;;;26.17;52.63;97088.31;5069975;28;20197;-74
2022/06/26 11:51:41;;;;;;;6.07;3.60;;;;;;;25.94;53.01;97075.84;5051937;28;20209;-73
2022/06/26 11:54:08;;;;;;;7.03;3.57;;;;;;;25.95;52.22;97085.44;5070590;28;20234;-74
2022/06/26 11:56:35;;;;;;;7.23;3.93;;;;;;;26.10;52.02;97083.84;5068704;28;20223;-74
2022/06/26 11:59:03;;;;;;;6.60;4.17;;;;;;;26.04;51.41;97089.78;5052240;28;20185;-73
2022/06/26 12:01:35;;;;;;;11.23;4.53;;;;;;;26.05;51.63;97092.25;5050412;28;20235;-73
2022/06/26 12:04:03;;;;;;;4.47;3.93;;;;;;;25.95;52.22;97090.75;5067987;28;20188;-74
2022/06/26 12:06:41;;;;;;;5.33;3.73;;;;;;;25.90;52.20;97079.81;5074632;28;20623;-75
2022/06/26 12:09:25;;;;;;;5.13;4.17;;;;;;;25.99;52.77;97081.50;5072834;28;20188;-74
2022/06/26 12:11:54;;;;;;;7.20;3.93;;;;;;;26.00;52.37;97086.63;5070243;28;20239;-73
2022/06/26 12:14:25;;;;;;;5.07;3.67;;;;;;;26.10;52.62;97090.00;5068654;28;20692;-73
2022/06/26 12:16:55;;;;;;;4.80;3.77;;;;;;;26.25;51.95;97084.84;5070031;28;20194;-73
2022/06/26 12:19:24;;;;;;;6.70;3.60;;;;;;;26.25;51.97;97072.41;5069209;28;21189;-73
2022/06/26 12:21:53;;;;;;;6.87;3.97;;;;;;;26.11;52.11;97070.41;5068738;28;20696;-73